createdAt,value
2023-02-19T00:00:26.248Z,7.33
2023-02-19T00:03:12.954Z,7.44
2023-02-19T00:06:02.898Z,7.37
2023-02-19T00:08:51.123Z,7.33
2023-02-19T00:11:38.805Z,7.44
2023-02-19T00:14:25.315Z,7.57
2023-02-19T00:17:12.175Z,7.49
2023-02-19T00:19:59.130Z,7.50
2023-02-19T00:22:47.638Z,7.41
2023-02-19T00:25:38.937Z,7.30
2023-02-19T00:28:25.623Z,7.41
2023-02-19T00:31:17.894Z,7.41
2023-02-19T00:34:07.135Z,7.56
2023-02-19T00:36:53.707Z,7.59
2023-02-19T00:39:40.540Z,7.68
2023-02-19T00:42:29.822Z,7.63
2023-02-19T00:45:27.811Z,7.60
2023-02-19T00:48:18.248Z,7.57
2023-02-19T00:51:07.073Z,7.46
2023-02-19T00:53:57.151Z,7.45
2023-02-19T00:56:46.257Z,7.41
2023-02-19T00:59:37.748Z,7.28
2023-02-19T01:02:27.587Z,7.33
2023-02-19T01:05:34.092Z,7.33
2023-02-19T01:08:22.834Z,7.23
2023-02-19T01:11:14.180Z,7.15
2023-02-19T01:14:02.233Z,7.23
2023-02-19T01:16:50.337Z,7.32
2023-02-19T01:19:37.267Z,7.40
2023-02-19T01:22:23.927Z,7.50
2023-02-19T01:25:11.245Z,7.30
2023-02-19T01:27:58.204Z,7.22
2023-02-19T01:30:44.912Z,7.20
2023-02-19T01:33:33.822Z,7.18
2023-02-19T01:36:20.768Z,7.15
2023-02-19T01:39:07.986Z,7.02
2023-02-19T01:41:54.305Z,7.13
2023-02-19T01:45:22.673Z,7.18
2023-02-19T01:48:13.408Z,7.24
2023-02-19T01:51:07.038Z,7.08
2023-02-19T01:53:58.607Z,7.10
2023-02-19T01:56:47.701Z,7.04
2023-02-19T01:59:35.337Z,6.97
2023-02-19T02:02:22.008Z,6.99
2023-02-19T02:05:14.775Z,6.98
2023-02-19T02:08:22.264Z,6.84
2023-02-19T02:11:09.902Z,6.77
2023-02-19T02:13:58.068Z,6.39
2023-02-19T02:16:55.714Z,7.00
2023-02-19T02:20:15.357Z,6.79
2023-02-19T02:23:16.034Z,6.82
2023-02-19T02:26:18.087Z,6.87
2023-02-19T02:29:28.216Z,6.79
2023-02-19T02:32:21.515Z,6.67
2023-02-19T02:35:11.242Z,6.76
2023-02-19T02:38:03.464Z,6.64
2023-02-19T02:40:52.430Z,6.65
2023-02-19T02:43:39.040Z,6.56
2023-02-19T02:46:31.125Z,6.55
2023-02-19T02:49:24.725Z,6.62
2023-02-19T02:52:37.271Z,6.64
2023-02-19T02:55:24.936Z,6.76
2023-02-19T02:58:13.100Z,6.87
2023-02-19T03:01:22.874Z,6.84
2023-02-19T03:04:15.200Z,6.89
2023-02-19T03:07:06.636Z,6.80
2023-02-19T03:09:56.243Z,6.88
2023-02-19T03:13:03.010Z,6.96
2023-02-19T03:16:15.282Z,6.93
2023-02-19T03:19:20.656Z,6.88
2023-02-19T03:22:14.245Z,6.71
2023-02-19T03:25:22.756Z,6.82
2023-02-19T03:28:12.306Z,6.72
2023-02-19T03:30:58.961Z,6.86
2023-02-19T03:33:48.861Z,6.77
2023-02-19T03:36:40.908Z,6.85
2023-02-19T03:39:29.403Z,6.80
2023-02-19T03:42:24.269Z,6.65
2023-02-19T03:45:29.080Z,6.73
2023-02-19T03:48:25.811Z,6.72
2023-02-19T03:51:28.790Z,6.64
2023-02-19T03:54:21.897Z,6.47
2023-02-19T03:57:18.551Z,6.36
2023-02-19T04:00:10.353Z,6.31
2023-02-19T04:03:08.602Z,6.15
2023-02-19T04:06:00.305Z,6.18
2023-02-19T04:08:51.277Z,6.15
2023-02-19T04:11:39.924Z,5.91
2023-02-19T04:14:37.562Z,5.97
2023-02-19T04:17:27.743Z,5.93
2023-02-19T04:20:15.695Z,6.01
2023-02-19T04:23:02.453Z,6.09
2023-02-19T04:25:53.593Z,5.68
2023-02-19T04:28:40.807Z,5.93
2023-02-19T04:31:31.205Z,5.92
2023-02-19T04:34:18.165Z,5.84
2023-02-19T04:37:05.065Z,5.68
2023-02-19T04:39:51.690Z,5.77
2023-02-19T04:42:38.367Z,5.71
2023-02-19T04:45:25.040Z,5.37
2023-02-19T04:48:13.284Z,5.69
2023-02-19T04:51:00.017Z,5.78
2023-02-19T04:53:48.345Z,5.80
2023-02-19T04:56:35.398Z,5.79
2023-02-19T04:59:22.877Z,5.67
2023-02-19T05:02:13.018Z,5.81
2023-02-19T05:05:02.012Z,5.84
2023-02-19T05:07:48.746Z,5.81
2023-02-19T05:10:35.918Z,5.85
2023-02-19T05:13:23.723Z,5.87
2023-02-19T05:16:14.014Z,5.81
2023-02-19T05:19:00.865Z,5.77
2023-02-19T05:21:48.802Z,5.86
2023-02-19T05:24:35.416Z,5.88
2023-02-19T05:27:22.033Z,5.94
2023-02-19T05:30:10.023Z,5.98
2023-02-19T05:32:56.691Z,5.88
2023-02-19T05:35:44.817Z,5.63
2023-02-19T05:38:32.802Z,5.71
2023-02-19T05:41:21.662Z,5.35
2023-02-19T05:44:08.097Z,5.53
2023-02-19T05:46:54.830Z,5.49
2023-02-19T05:49:41.741Z,5.37
2023-02-19T05:52:28.455Z,5.52
2023-02-19T05:55:16.672Z,5.62
2023-02-19T05:58:03.185Z,5.62
2023-02-19T06:00:50.170Z,5.39
2023-02-19T06:03:36.821Z,5.33
2023-02-19T06:06:25.071Z,5.58
2023-02-19T06:09:11.872Z,5.63
2023-02-19T06:11:59.779Z,5.68
2023-02-19T06:14:46.549Z,5.63
2023-02-19T06:17:33.781Z,5.56
2023-02-19T06:20:20.854Z,5.48
2023-02-19T06:23:07.373Z,5.50
2023-02-19T06:25:54.083Z,5.56
2023-02-19T06:28:43.353Z,5.31
2023-02-19T06:31:30.093Z,5.59
2023-02-19T06:34:16.691Z,5.57
2023-02-19T06:37:03.799Z,5.71
2023-02-19T06:39:51.146Z,5.71
2023-02-19T06:42:37.492Z,5.63
2023-02-19T06:45:25.710Z,5.60
2023-02-19T06:48:12.618Z,5.65
2023-02-19T06:50:59.556Z,5.60
2023-02-19T06:53:46.484Z,5.76
2023-02-19T06:56:34.888Z,5.69
2023-02-19T06:59:21.567Z,5.79
2023-02-19T07:02:12.200Z,5.70
2023-02-19T07:04:58.692Z,5.88
2023-02-19T07:07:46.820Z,5.75
2023-02-19T07:10:33.407Z,5.87
2023-02-19T07:13:20.089Z,5.90
2023-02-19T07:16:08.947Z,5.89
2023-02-19T07:18:58.996Z,6.01
2023-02-19T07:21:45.775Z,6.13
2023-02-19T07:24:32.597Z,6.02
2023-02-19T07:27:19.447Z,6.09
2023-02-19T07:30:06.802Z,6.28
2023-02-19T07:32:53.557Z,6.11
2023-02-19T07:35:47.037Z,6.36
2023-02-19T07:38:33.356Z,6.45
2023-02-19T07:41:20.164Z,6.63
2023-02-19T07:44:07.368Z,6.43
2023-02-19T07:46:54.194Z,6.51
2023-02-19T07:49:40.988Z,6.50
2023-02-19T07:52:29.431Z,6.63
2023-02-19T07:55:16.607Z,6.50
2023-02-19T07:58:05.865Z,6.35
2023-02-19T08:00:52.788Z,6.33
2023-02-19T08:03:39.164Z,6.40
2023-02-19T08:06:25.789Z,6.36
2023-02-19T08:09:14.036Z,6.29
2023-02-19T08:12:18.116Z,6.32
2023-02-19T08:15:05.284Z,6.39
2023-02-19T08:17:51.831Z,6.47
2023-02-19T08:20:38.730Z,6.46
2023-02-19T08:23:26.402Z,6.57
2023-02-19T08:26:15.053Z,6.20
2023-02-19T08:29:02.093Z,6.46
2023-02-19T08:31:48.720Z,6.37
2023-02-19T08:34:35.278Z,6.47
2023-02-19T08:37:22.116Z,6.49
2023-02-19T08:40:09.543Z,6.31
2023-02-19T08:42:57.608Z,6.36
2023-02-19T08:45:47.415Z,6.46
2023-02-19T08:48:34.032Z,6.40
2023-02-19T08:51:20.774Z,6.53
2023-02-19T08:54:08.641Z,6.71
2023-02-19T08:56:55.282Z,6.37
2023-02-19T08:59:43.436Z,6.53
2023-02-19T09:02:30.270Z,6.69
2023-02-19T09:05:17.827Z,6.64
2023-02-19T09:08:04.763Z,6.68
2023-02-19T09:10:59.125Z,6.70
2023-02-19T09:13:45.951Z,6.67
2023-02-19T09:16:33.636Z,6.79
2023-02-19T09:19:20.427Z,6.81
2023-02-19T09:22:07.483Z,6.74
2023-02-19T09:24:54.206Z,6.76
2023-02-19T09:27:41.180Z,6.81
2023-02-19T09:30:27.949Z,6.84
2023-02-19T09:33:15.917Z,7.02
2023-02-19T09:36:03.478Z,7.16
2023-02-19T09:38:50.657Z,7.11
2023-02-19T09:41:41.626Z,7.13
2023-02-19T09:44:33.451Z,7.22
2023-02-19T09:47:25.161Z,7.18
2023-02-19T09:50:21.520Z,7.22
2023-02-19T09:53:16.839Z,7.49
2023-02-19T09:56:03.797Z,7.34
2023-02-19T09:58:53.351Z,7.32
2023-02-19T10:01:41.860Z,7.69
2023-02-19T10:04:28.841Z,7.49
2023-02-19T10:07:20.300Z,7.76
2023-02-19T10:10:26.026Z,7.75
2023-02-19T10:13:19.566Z,7.55
2023-02-19T10:16:10.910Z,7.49
2023-02-19T10:18:57.716Z,7.61
2023-02-19T10:21:45.622Z,7.68
2023-02-19T10:24:33.512Z,7.76
2023-02-19T10:27:20.189Z,7.68
2023-02-19T10:30:08.499Z,7.65
2023-02-19T10:33:04.680Z,7.88
2023-02-19T10:35:57.330Z,8.05
2023-02-19T10:38:48.830Z,7.81
2023-02-19T10:41:44.329Z,7.77
2023-02-19T10:44:36.539Z,7.62
2023-02-19T10:47:25.312Z,7.96
2023-02-19T10:50:21.726Z,8.03
2023-02-19T10:53:22.060Z,8.27
2023-02-19T10:56:10.700Z,8.31
2023-02-19T10:59:16.325Z,8.05
2023-02-19T11:02:06.544Z,8.06
2023-02-19T11:05:20.087Z,7.96
2023-02-19T11:08:06.645Z,8.53
2023-02-19T11:10:53.327Z,8.83
2023-02-19T11:13:43.542Z,8.83
2023-02-19T11:16:42.469Z,8.61
2023-02-19T11:19:37.590Z,8.33
2023-02-19T11:22:33.217Z,8.35
2023-02-19T11:25:25.561Z,8.24
2023-02-19T11:28:25.103Z,8.24
2023-02-19T11:31:22.962Z,8.26
2023-02-19T11:34:31.156Z,8.21
2023-02-19T11:37:19.710Z,8.29
2023-02-19T11:40:06.909Z,8.39
2023-02-19T11:43:02.510Z,8.62
2023-02-19T11:45:59.704Z,8.52
2023-02-19T11:49:04.689Z,8.66
2023-02-19T11:52:09.010Z,8.79
2023-02-19T11:55:03.632Z,8.95
2023-02-19T11:58:03.554Z,8.73
2023-02-19T12:00:59.470Z,8.52
2023-02-19T12:04:05.456Z,8.26
2023-02-19T12:07:04.769Z,8.48
2023-02-19T12:10:02.863Z,8.02
2023-02-19T12:13:01.654Z,7.72
2023-02-19T12:16:20.816Z,7.54
2023-02-19T12:19:43.383Z,7.59
2023-02-19T12:22:33.175Z,7.69
2023-02-19T12:25:29.735Z,7.89
2023-02-19T12:28:36.657Z,8.07
2023-02-19T12:31:44.215Z,7.83
2023-02-19T12:35:21.497Z,8.08
2023-02-19T12:38:29.988Z,7.99
2023-02-19T12:41:25.840Z,7.95
2023-02-19T12:44:16.830Z,8.06
2023-02-19T12:47:06.654Z,7.98
2023-02-19T12:50:03.496Z,8.18
2023-02-19T12:52:55.058Z,8.07
2023-02-19T12:55:45.540Z,8.18
2023-02-19T12:58:39.008Z,8.10
2023-02-19T13:01:29.368Z,8.20
2023-02-19T13:04:23.918Z,7.90
2023-02-19T13:07:14.166Z,8.08
2023-02-19T13:10:25.868Z,8.16
2023-02-19T13:13:18.669Z,8.26
2023-02-19T13:16:09.906Z,8.17
2023-02-19T13:19:00.086Z,8.23
2023-02-19T13:22:10.229Z,8.34
2023-02-19T13:24:57.958Z,8.27
2023-02-19T13:28:05.365Z,8.32
2023-02-19T13:31:13.983Z,8.48
2023-02-19T13:34:11.699Z,8.27
2023-02-19T13:36:59.823Z,8.18
2023-02-19T13:39:50.081Z,8.16
2023-02-19T13:42:38.044Z,8.25
2023-02-19T13:45:33.188Z,8.45
2023-02-19T13:48:30.746Z,8.72
2023-02-19T13:51:51.183Z,8.64
2023-02-19T13:54:40.356Z,8.61
2023-02-19T13:57:29.854Z,8.47
2023-02-19T14:00:49.468Z,8.45
2023-02-19T14:03:54.209Z,8.32
2023-02-19T14:07:13.837Z,8.37
2023-02-19T14:10:01.892Z,8.42
2023-02-19T14:12:50.927Z,8.38
2023-02-19T14:15:44.336Z,8.30
2023-02-19T14:18:45.758Z,8.08
2023-02-19T14:21:39.299Z,8.18
2023-02-19T14:24:26.293Z,7.99
2023-02-19T14:27:12.958Z,7.96
2023-02-19T14:29:59.826Z,8.06
2023-02-19T14:32:51.022Z,8.01
2023-02-19T14:35:41.541Z,8.04
2023-02-19T14:38:33.731Z,7.99
2023-02-19T14:41:23.107Z,8.09
2023-02-19T14:44:18.073Z,8.06
2023-02-19T14:47:07.630Z,8.23
2023-02-19T14:49:58.911Z,8.37
2023-02-19T14:52:49.163Z,8.27
2023-02-19T14:55:40.082Z,8.37
2023-02-19T14:58:31.658Z,8.39
2023-02-19T15:01:27.906Z,8.50
2023-02-19T15:04:23.327Z,8.03
2023-02-19T15:07:15.311Z,8.11
2023-02-19T15:10:06.019Z,8.17
2023-02-19T15:12:57.114Z,8.30
2023-02-19T15:15:46.750Z,8.32
2023-02-19T15:18:36.632Z,8.28
2023-02-19T15:21:25.917Z,8.17
2023-02-19T15:24:15.364Z,7.87
2023-02-19T15:27:02.160Z,7.96
2023-02-19T15:29:53.802Z,7.81
2023-02-19T15:32:40.748Z,7.90
2023-02-19T15:35:28.740Z,7.85
2023-02-19T15:38:16.021Z,7.66
2023-02-19T15:41:02.841Z,7.59
2023-02-19T15:43:54.344Z,7.85
2023-02-19T15:46:45.413Z,7.70
2023-02-19T15:49:45.083Z,7.57
2023-02-19T15:52:40.152Z,7.55
2023-02-19T15:55:34.721Z,7.46
2023-02-19T15:58:28.924Z,7.36
2023-02-19T16:01:21.843Z,7.49
2023-02-19T16:04:14.981Z,7.40
2023-02-19T16:07:04.293Z,7.21
2023-02-19T16:09:50.913Z,7.32
2023-02-19T16:12:52.807Z,7.09
2023-02-19T16:15:41.368Z,6.84
2023-02-19T16:18:33.466Z,6.67
2023-02-19T16:21:25.181Z,6.44
2023-02-19T16:24:19.911Z,6.20
2023-02-19T16:27:07.879Z,6.08
2023-02-19T16:29:54.889Z,5.96
2023-02-19T16:32:41.732Z,5.73
2023-02-19T16:35:39.820Z,5.56
2023-02-19T16:38:28.024Z,5.49
2023-02-19T16:41:16.498Z,5.62
2023-02-19T16:44:31.029Z,5.80
2023-02-19T16:47:36.713Z,5.75
2023-02-19T16:50:26.894Z,5.67
2023-02-19T16:53:20.641Z,5.34
2023-02-19T16:56:14.665Z,5.09
2023-02-19T16:59:01.143Z,4.97
2023-02-19T17:01:47.928Z,4.84
2023-02-19T17:04:35.402Z,4.65
2023-02-19T17:07:22.448Z,4.70
2023-02-19T17:10:10.083Z,4.67
2023-02-19T17:12:58.118Z,4.58
2023-02-19T17:15:44.792Z,4.50
2023-02-19T17:18:31.676Z,4.43
2023-02-19T17:21:21.748Z,4.33
2023-02-19T17:24:08.562Z,4.24
2023-02-19T17:26:55.083Z,4.15
2023-02-19T17:29:43.249Z,4.12
2023-02-19T17:32:30.145Z,4.02
2023-02-19T17:35:17.278Z,4.02
2023-02-19T17:38:09.529Z,4.10
2023-02-19T17:40:56.288Z,3.90
2023-02-19T17:43:43.100Z,3.85
2023-02-19T17:46:31.200Z,3.89
2023-02-19T17:49:17.827Z,3.93
2023-02-19T17:52:04.721Z,4.00
2023-02-19T17:54:51.488Z,3.93
2023-02-19T17:57:38.122Z,4.04
2023-02-19T18:00:27.464Z,3.97
2023-02-19T18:03:15.725Z,3.94
2023-02-19T18:06:02.849Z,3.98
2023-02-19T18:08:51.277Z,3.92
2023-02-19T18:11:38.076Z,3.83
2023-02-19T18:14:24.857Z,3.83
2023-02-19T18:17:11.541Z,3.74
2023-02-19T18:19:59.699Z,3.56
2023-02-19T18:22:46.698Z,3.61
2023-02-19T18:25:33.647Z,3.62
2023-02-19T18:28:20.450Z,3.62
2023-02-19T18:31:07.705Z,3.54
2023-02-19T18:33:54.309Z,3.45
2023-02-19T18:36:45.572Z,2.98
2023-02-19T18:39:32.020Z,3.43
2023-02-19T18:42:19.275Z,3.41
2023-02-19T18:45:06.350Z,3.45
2023-02-19T18:47:52.851Z,3.37
2023-02-19T18:50:39.629Z,3.44
2023-02-19T18:53:29.013Z,3.50
2023-02-19T18:56:17.449Z,3.41
2023-02-19T18:59:04.467Z,3.41
2023-02-19T19:01:51.557Z,3.38
2023-02-19T19:04:39.634Z,3.41
2023-02-19T19:07:26.066Z,3.46
2023-02-19T19:10:14.835Z,3.66
2023-02-19T19:13:01.343Z,3.67
2023-02-19T19:15:50.999Z,3.66
2023-02-19T19:18:38.335Z,3.72
2023-02-19T19:21:25.237Z,3.72
2023-02-19T19:24:13.572Z,3.78
2023-02-19T19:27:01.741Z,3.73
2023-02-19T19:29:49.726Z,3.77
2023-02-19T19:32:36.469Z,3.80
2023-02-19T19:35:24.107Z,3.83
2023-02-19T19:38:10.694Z,3.92
2023-02-19T19:41:01.256Z,4.00
2023-02-19T19:43:49.928Z,4.07
2023-02-19T19:46:39.551Z,3.94
2023-02-19T19:49:26.308Z,4.02
2023-02-19T19:52:13.216Z,4.04
2023-02-19T19:54:59.894Z,4.01
2023-02-19T19:57:50.296Z,3.92
2023-02-19T20:00:45.321Z,3.86
2023-02-19T20:03:35.323Z,3.82
2023-02-19T20:06:34.888Z,3.73
2023-02-19T20:09:45.420Z,3.59
2023-02-19T20:12:39.506Z,3.59
2023-02-19T20:15:31.955Z,3.84
2023-02-19T20:18:22.565Z,4.02
2023-02-19T20:21:10.533Z,4.07
2023-02-19T20:23:57.373Z,3.90
2023-02-19T20:26:44.981Z,3.99
2023-02-19T20:29:34.127Z,3.91
2023-02-19T20:32:20.857Z,3.87
2023-02-19T20:35:10.021Z,3.75
2023-02-19T20:37:56.876Z,3.82
2023-02-19T20:40:43.617Z,3.93
2023-02-19T20:43:30.380Z,3.84
2023-02-19T20:46:17.202Z,3.87
2023-02-19T20:49:04.024Z,3.84
2023-02-19T20:51:54.932Z,3.82
2023-02-19T20:54:42.582Z,3.88
2023-02-19T20:57:29.241Z,3.90
2023-02-19T21:00:17.127Z,3.98
2023-02-19T21:03:03.823Z,4.13
2023-02-19T21:05:50.493Z,4.22
2023-02-19T21:08:38.422Z,4.36
2023-02-19T21:11:25.121Z,4.26
2023-02-19T21:14:12.276Z,4.37
2023-02-19T21:16:58.703Z,4.24
2023-02-19T21:19:45.677Z,4.26
2023-02-19T21:22:32.441Z,4.48
2023-02-19T21:25:20.635Z,4.48
2023-02-19T21:28:09.151Z,4.35
2023-02-19T21:30:56.165Z,4.32
2023-02-19T21:33:42.688Z,4.32
2023-02-19T21:36:29.677Z,4.23
2023-02-19T21:39:18.598Z,4.05
2023-02-19T21:42:06.670Z,4.12
2023-02-19T21:44:53.229Z,3.94
2023-02-19T21:47:40.298Z,3.81
2023-02-19T21:50:27.120Z,3.76
2023-02-19T21:53:14.286Z,3.80
2023-02-19T21:56:01.140Z,3.72
2023-02-19T21:58:49.192Z,3.70
2023-02-19T22:01:38.891Z,3.82
2023-02-19T22:04:25.612Z,3.86
2023-02-19T22:07:12.190Z,3.93
2023-02-19T22:09:58.923Z,3.91
2023-02-19T22:12:45.744Z,4.00
2023-02-19T22:15:34.104Z,4.00
2023-02-19T22:18:20.741Z,3.95
2023-02-19T22:21:07.649Z,3.86
2023-02-19T22:23:55.531Z,3.97
2023-02-19T22:26:42.671Z,3.88
2023-02-19T22:29:29.797Z,3.85
2023-02-19T22:32:17.775Z,3.81
2023-02-19T22:35:04.650Z,3.73
2023-02-19T22:37:51.275Z,3.70
2023-02-19T22:40:38.057Z,3.70
2023-02-19T22:43:24.737Z,3.68
2023-02-19T22:46:15.779Z,3.62
2023-02-19T22:49:06.614Z,3.57
2023-02-19T22:51:57.318Z,3.80
2023-02-19T22:54:43.875Z,3.93
2023-02-19T22:57:30.693Z,4.08
2023-02-19T23:00:18.859Z,4.21
2023-02-19T23:03:05.626Z,4.23
2023-02-19T23:05:53.822Z,4.37
2023-02-19T23:08:42.349Z,4.38
2023-02-19T23:11:31.024Z,4.51
2023-02-19T23:14:18.942Z,4.59
2023-02-19T23:17:05.776Z,4.65
2023-02-19T23:19:52.770Z,4.89
2023-02-19T23:22:40.788Z,5.01
2023-02-19T23:25:27.588Z,5.07
2023-02-19T23:28:14.495Z,5.03
2023-02-19T23:31:01.956Z,5.18
2023-02-19T23:33:48.335Z,5.11
2023-02-19T23:36:35.360Z,5.22
2023-02-19T23:39:23.760Z,5.09
2023-02-19T23:42:16.067Z,5.15
2023-02-19T23:45:03.324Z,5.00
2023-02-19T23:47:52.221Z,5.13
2023-02-19T23:50:45.697Z,5.05
2023-02-19T23:53:32.604Z,5.07
2023-02-19T23:56:25.454Z,5.22
2023-02-19T23:59:12.093Z,5.11
